createdAt,value
2022-08-23T00:02:26.703Z,35.62
2022-08-23T00:05:08.167Z,35.23
2022-08-23T00:07:39.674Z,35.08
2022-08-23T00:10:11.678Z,34.67
2022-08-23T00:12:40.675Z,35.33
2022-08-23T00:15:10.896Z,35.27
2022-08-23T00:17:42.226Z,35.33
2022-08-23T00:20:14.004Z,34.74
2022-08-23T00:22:42.146Z,35.60
2022-08-23T00:25:13.783Z,34.86
2022-08-23T00:27:42.174Z,35.69
2022-08-23T00:30:12.616Z,34.93
2022-08-23T00:32:41.549Z,35.42
2022-08-23T00:35:11.554Z,35.56
2022-08-23T00:37:40.074Z,35.60
2022-08-23T00:40:12.263Z,35.29
2022-08-23T00:43:02.642Z,34.68
2022-08-23T00:45:52.239Z,34.58
2022-08-23T00:48:20.670Z,35.51
2022-08-23T00:50:52.737Z,34.91
2022-08-23T00:53:24.086Z,35.20
2022-08-23T00:55:57.325Z,35.07
2022-08-23T00:58:26.644Z,35.40
2022-08-23T01:00:56.990Z,35.24
2022-08-23T01:03:27.291Z,35.31
2022-08-23T01:05:59.807Z,35.02
2022-08-23T01:08:28.559Z,35.29
2022-08-23T01:11:01.199Z,34.82
2022-08-23T01:13:36.065Z,34.71
2022-08-23T01:16:08.913Z,34.92
2022-08-23T01:18:38.178Z,35.54
2022-08-23T01:21:13.656Z,35.03
2022-08-23T01:23:45.359Z,35.32
2022-08-23T01:26:14.476Z,35.60
2022-08-23T01:28:50.320Z,35.87
2022-08-23T01:31:19.325Z,35.71
2022-08-23T01:33:50.346Z,35.33
2022-08-23T01:36:18.648Z,35.28
2022-08-23T01:38:48.412Z,35.23
2022-08-23T01:41:16.556Z,35.61
2022-08-23T01:43:45.115Z,35.56
2022-08-23T01:46:18.048Z,35.19
2022-08-23T01:48:47.100Z,35.51
2022-08-23T01:51:16.864Z,35.74
2022-08-23T01:53:46.689Z,35.72
2022-08-23T01:56:27.605Z,35.28
2022-08-23T01:59:08.566Z,35.57
2022-08-23T02:01:37.119Z,35.71
2022-08-23T02:04:05.739Z,35.81
2022-08-23T02:06:34.747Z,35.72
2022-08-23T02:09:03.892Z,35.87
2022-08-23T02:11:35.554Z,34.90
2022-08-23T02:14:06.648Z,35.39
2022-08-23T02:16:37.446Z,35.20
2022-08-23T02:19:08.696Z,35.09
2022-08-23T02:21:38.049Z,35.46
2022-08-23T02:24:08.432Z,35.31
2022-08-23T02:26:38.987Z,35.18
2022-08-23T02:29:07.715Z,35.58
2022-08-23T02:31:36.154Z,35.71
2022-08-23T02:34:06.072Z,35.79
2022-08-23T02:36:34.943Z,35.90
2022-08-23T02:39:03.155Z,35.62
2022-08-23T02:41:31.774Z,35.92
2022-08-23T02:44:01.635Z,35.33
2022-08-23T02:46:29.827Z,35.95
2022-08-23T02:48:58.069Z,35.92
2022-08-23T02:51:26.830Z,35.67
2022-08-23T02:53:54.910Z,35.82
2022-08-23T02:56:23.281Z,35.43
2022-08-23T02:58:54.196Z,35.69
2022-08-23T03:01:28.668Z,35.00
2022-08-23T03:03:58.600Z,35.55
2022-08-23T03:06:27.053Z,35.72
2022-08-23T03:08:55.651Z,35.59
2022-08-23T03:11:25.124Z,35.44
2022-08-23T03:13:54.832Z,35.25
2022-08-23T03:16:24.735Z,34.95
2022-08-23T03:18:53.248Z,35.49
2022-08-23T03:21:22.222Z,35.41
2022-08-23T03:23:50.651Z,35.60
2022-08-23T03:26:18.974Z,35.72
2022-08-23T03:28:47.828Z,35.43
2022-08-23T03:31:17.128Z,35.33
2022-08-23T03:33:47.399Z,35.26
2022-08-23T03:36:16.309Z,35.47
2022-08-23T03:38:45.404Z,35.70
2022-08-23T03:41:14.205Z,35.50
2022-08-23T03:43:42.443Z,35.77
2022-08-23T03:46:10.587Z,35.74
2022-08-23T03:48:40.333Z,35.88
2022-08-23T03:51:09.714Z,35.41
2022-08-23T03:53:37.844Z,35.68
2022-08-23T03:56:06.737Z,35.62
2022-08-23T03:58:35.007Z,36.07
2022-08-23T04:01:03.243Z,36.06
2022-08-23T04:03:32.239Z,35.99
2022-08-23T04:06:00.431Z,35.48
2022-08-23T04:08:33.368Z,35.06
2022-08-23T04:11:02.377Z,35.41
2022-08-23T04:13:30.681Z,35.34
2022-08-23T04:15:59.469Z,35.05
2022-08-23T04:18:30.094Z,35.37
2022-08-23T04:20:59.972Z,34.96
2022-08-23T04:23:29.719Z,34.85
2022-08-23T04:25:58.044Z,35.38
2022-08-23T04:28:27.070Z,35.36
2022-08-23T04:30:55.378Z,35.25
2022-08-23T04:33:24.104Z,35.32
2022-08-23T04:35:52.571Z,35.32
2022-08-23T04:38:25.085Z,35.48
2022-08-23T04:41:12.725Z,35.15
2022-08-23T04:43:41.497Z,35.52
2022-08-23T04:46:10.409Z,35.70
2022-08-23T04:48:39.283Z,35.22
2022-08-23T04:51:07.892Z,35.65
2022-08-23T04:53:36.186Z,35.71
2022-08-23T04:56:07.109Z,34.99
2022-08-23T04:58:36.715Z,35.30
2022-08-23T05:01:08.033Z,35.03
2022-08-23T05:03:36.709Z,35.25
2022-08-23T05:06:05.314Z,35.12
2022-08-23T05:08:33.606Z,35.53
2022-08-23T05:11:02.902Z,35.14
2022-08-23T05:13:34.769Z,34.57
2022-08-23T05:16:03.850Z,34.89
2022-08-23T05:18:32.149Z,34.68
2022-08-23T05:21:00.436Z,34.64
2022-08-23T05:23:32.348Z,35.09
2022-08-23T05:26:02.006Z,34.58
2022-08-23T05:28:34.622Z,34.43
2022-08-23T05:31:06.100Z,34.44
2022-08-23T05:33:40.699Z,34.37
2022-08-23T05:36:10.646Z,34.25
2022-08-23T05:38:39.648Z,34.40
2022-08-23T05:41:08.740Z,34.44
2022-08-23T05:43:38.559Z,33.81
2022-08-23T05:46:12.649Z,34.11
2022-08-23T05:48:43.523Z,33.72
2022-08-23T05:51:13.760Z,33.58
2022-08-23T05:53:43.053Z,33.30
2022-08-23T05:56:13.059Z,33.20
2022-08-23T05:58:43.601Z,32.90
2022-08-23T06:01:12.386Z,32.64
2022-08-23T06:03:41.675Z,32.63
2022-08-23T06:06:10.576Z,32.71
2022-08-23T06:08:40.241Z,32.37
2022-08-23T06:11:11.075Z,31.90
2022-08-23T06:13:43.935Z,31.06
2022-08-23T06:16:13.258Z,31.38
2022-08-23T06:18:44.521Z,31.38
2022-08-23T06:21:14.947Z,30.71
2022-08-23T06:23:44.263Z,30.90
2022-08-23T06:26:14.067Z,30.90
2022-08-23T06:28:50.833Z,30.50
2022-08-23T06:31:42.060Z,30.91
2022-08-23T06:34:12.730Z,30.41
2022-08-23T06:36:42.043Z,29.37
2022-08-23T06:39:12.239Z,28.15
2022-08-23T06:41:40.369Z,28.47
2022-08-23T06:44:10.544Z,27.27
2022-08-23T06:46:39.287Z,27.33
2022-08-23T06:49:08.099Z,27.06
2022-08-23T06:51:38.472Z,26.09
2022-08-23T06:54:10.014Z,26.02
2022-08-23T06:56:42.241Z,26.50
2022-08-23T06:59:12.252Z,26.62
2022-08-23T07:01:46.065Z,26.02
2022-08-23T07:04:21.417Z,25.71
2022-08-23T07:06:49.623Z,25.98
2022-08-23T07:09:18.773Z,25.70
2022-08-23T07:11:47.012Z,26.02
2022-08-23T07:14:19.073Z,25.18
2022-08-23T07:16:50.326Z,26.45
2022-08-23T07:19:19.459Z,27.40
2022-08-23T07:21:48.836Z,27.61
2022-08-23T07:24:17.949Z,26.36
2022-08-23T07:26:48.854Z,25.86
2022-08-23T07:29:18.581Z,25.83
2022-08-23T07:31:49.626Z,26.98
2022-08-23T07:34:18.802Z,27.31
2022-08-23T07:36:48.311Z,28.15
2022-08-23T07:39:17.582Z,28.26
2022-08-23T07:41:46.949Z,28.78
2022-08-23T07:44:19.124Z,28.19
2022-08-23T07:46:51.421Z,28.53
2022-08-23T07:49:20.039Z,28.80
2022-08-23T07:51:50.528Z,28.86
2022-08-23T07:54:20.317Z,28.87
2022-08-23T07:56:48.741Z,29.38
2022-08-23T07:59:16.871Z,28.96
2022-08-23T08:01:46.552Z,29.16
2022-08-23T08:04:15.060Z,29.53
2022-08-23T08:06:46.408Z,29.26
2022-08-23T08:09:15.585Z,29.29
2022-08-23T08:11:47.641Z,29.33
2022-08-23T08:14:17.267Z,29.68
2022-08-23T08:16:49.864Z,29.48
2022-08-23T08:19:19.921Z,29.52
2022-08-23T08:21:48.670Z,30.09
2022-08-23T08:24:17.896Z,29.17
2022-08-23T08:26:46.926Z,29.06
2022-08-23T08:29:15.545Z,29.08
2022-08-23T08:31:50.306Z,29.35
2022-08-23T08:34:21.023Z,29.93
2022-08-23T08:36:52.023Z,29.32
2022-08-23T08:39:23.731Z,28.15
2022-08-23T08:42:08.866Z,27.73
2022-08-23T08:44:40.552Z,28.75
2022-08-23T08:47:15.754Z,28.08
2022-08-23T08:49:52.521Z,27.47
2022-08-23T08:52:24.981Z,27.22
2022-08-23T08:54:58.881Z,26.76
2022-08-23T08:57:27.835Z,26.91
2022-08-23T09:00:00.763Z,26.53
2022-08-23T09:02:34.848Z,26.92
2022-08-23T09:05:05.904Z,26.88
2022-08-23T09:07:43.300Z,26.58
2022-08-23T09:10:26.342Z,25.89
2022-08-23T09:13:03.760Z,26.34
2022-08-23T09:15:42.890Z,25.75
2022-08-23T09:18:15.941Z,25.71
2022-08-23T09:20:45.917Z,26.49
2022-08-23T09:23:18.295Z,25.81
2022-08-23T09:25:53.326Z,25.86
2022-08-23T09:28:21.905Z,26.57
2022-08-23T09:30:53.596Z,26.26
2022-08-23T09:33:26.272Z,26.54
2022-08-23T09:36:15.320Z,25.39
2022-08-23T09:38:53.209Z,24.90
2022-08-23T09:41:27.959Z,25.56
2022-08-23T09:43:59.089Z,25.62
2022-08-23T09:46:30.541Z,25.49
2022-08-23T09:49:01.628Z,25.43
2022-08-23T09:51:34.993Z,25.24
2022-08-23T09:54:07.870Z,25.32
2022-08-23T09:56:39.727Z,25.04
2022-08-23T09:59:26.865Z,24.70
2022-08-23T10:01:57.854Z,25.09
2022-08-23T10:04:41.378Z,24.83
2022-08-23T10:07:28.205Z,24.92
2022-08-23T10:09:56.780Z,25.48
2022-08-23T10:12:25.298Z,26.15
2022-08-23T10:14:53.839Z,25.96
2022-08-23T10:17:28.976Z,25.29
2022-08-23T10:20:06.170Z,25.79
2022-08-23T10:22:42.025Z,25.52
2022-08-23T10:25:14.154Z,25.85
2022-08-23T10:28:06.140Z,25.86
2022-08-23T10:30:50.029Z,25.94
2022-08-23T10:33:22.074Z,26.18
2022-08-23T10:36:01.071Z,25.78
2022-08-23T10:38:36.718Z,26.07
2022-08-23T10:41:19.036Z,25.93
2022-08-23T10:43:53.844Z,25.66
2022-08-23T10:46:23.877Z,25.94
2022-08-23T10:48:54.076Z,24.97
2022-08-23T10:51:31.684Z,24.60
2022-08-23T10:54:04.140Z,24.33
2022-08-23T10:56:32.560Z,24.65
2022-08-23T10:59:03.923Z,23.86
2022-08-23T11:01:33.066Z,22.64
2022-08-23T11:04:03.935Z,23.13
2022-08-23T11:06:47.822Z,21.88
2022-08-23T11:09:50.305Z,20.21
2022-08-23T11:12:24.682Z,18.66
2022-08-23T11:15:11.466Z,18.23
2022-08-23T11:17:45.298Z,17.75
2022-08-23T11:20:15.136Z,17.31
2022-08-23T11:23:13.649Z,17.28
2022-08-23T11:25:43.808Z,17.43
2022-08-23T11:28:37.810Z,16.25
2022-08-23T11:31:21.836Z,16.27
2022-08-23T11:33:53.204Z,17.39
2022-08-23T11:36:24.031Z,17.56
2022-08-23T11:39:06.552Z,17.35
2022-08-23T11:41:38.088Z,17.21
2022-08-23T11:44:24.827Z,16.41
2022-08-23T11:47:04.533Z,16.39
2022-08-23T11:50:08.795Z,16.57
2022-08-23T11:52:54.310Z,16.88
2022-08-23T11:55:30.735Z,16.70
2022-08-23T11:58:14.014Z,16.39
2022-08-23T12:00:55.598Z,15.98
2022-08-23T12:03:27.107Z,16.63
2022-08-23T12:06:16.019Z,16.97
2022-08-23T12:08:52.547Z,17.93
2022-08-23T12:11:24.057Z,18.67
2022-08-23T12:14:01.531Z,19.28
2022-08-23T12:16:49.525Z,19.02
2022-08-23T12:19:26.205Z,19.72
2022-08-23T12:21:56.064Z,19.75
2022-08-23T12:24:27.507Z,19.63
2022-08-23T12:27:02.261Z,19.53
2022-08-23T12:29:41.662Z,19.50
2022-08-23T12:32:15.160Z,19.56
2022-08-23T12:34:53.738Z,19.37
2022-08-23T12:37:32.642Z,18.81
2022-08-23T12:40:03.369Z,18.64
2022-08-23T12:42:35.505Z,18.09
2022-08-23T12:45:08.213Z,18.21
2022-08-23T12:47:40.913Z,18.51
2022-08-23T12:50:21.086Z,17.73
2022-08-23T12:52:59.583Z,17.89
2022-08-23T12:55:32.863Z,17.43
2022-08-23T12:58:02.755Z,17.16
2022-08-23T13:00:34.181Z,17.47
2022-08-23T13:03:05.145Z,18.06
2022-08-23T13:05:39.197Z,18.31
2022-08-23T13:08:09.727Z,18.94
2022-08-23T13:10:41.639Z,18.77
2022-08-23T13:13:13.964Z,18.58
2022-08-23T13:15:46.875Z,18.55
2022-08-23T13:18:29.384Z,18.64
2022-08-23T13:21:20.496Z,18.94
2022-08-23T13:23:48.559Z,19.12
2022-08-23T13:26:28.678Z,19.89
2022-08-23T13:29:11.533Z,20.30
2022-08-23T13:31:53.353Z,20.19
2022-08-23T13:34:39.653Z,20.54
2022-08-23T13:37:21.677Z,21.14
2022-08-23T13:39:54.414Z,21.55
2022-08-23T13:42:31.940Z,21.00
2022-08-23T13:45:08.329Z,20.78
2022-08-23T13:47:37.745Z,21.36
2022-08-23T13:50:11.539Z,21.08
2022-08-23T13:53:03.192Z,21.38
2022-08-23T13:55:29.425Z,21.35
2022-08-23T13:57:59.208Z,21.23
2022-08-23T14:00:28.771Z,21.15
2022-08-23T14:02:56.975Z,21.67
2022-08-23T14:05:25.440Z,21.84
2022-08-23T14:07:53.845Z,21.71
2022-08-23T14:10:23.312Z,21.57
2022-08-23T14:12:54.115Z,21.24
2022-08-23T14:15:54.646Z,21.75
2022-08-23T14:18:12.865Z,21.75
2022-08-23T14:20:46.249Z,22.00
2022-08-23T14:23:14.998Z,22.21
2022-08-23T14:25:43.569Z,21.96
2022-08-23T14:28:11.685Z,21.42
2022-08-23T14:30:40.330Z,21.23
2022-08-23T14:33:08.738Z,21.57
2022-08-23T14:35:38.434Z,21.18
2022-08-23T14:38:07.946Z,21.47
2022-08-23T14:40:36.690Z,21.20
2022-08-23T14:43:06.018Z,21.56
2022-08-23T14:45:34.517Z,21.65
2022-08-23T14:48:04.022Z,21.65
2022-08-23T14:50:32.401Z,21.75
2022-08-23T14:53:04.931Z,21.43
2022-08-23T14:55:33.294Z,21.91
2022-08-23T14:58:01.776Z,21.98
2022-08-23T15:00:31.261Z,21.75
2022-08-23T15:02:59.763Z,22.33
2022-08-23T15:05:28.088Z,22.00
2022-08-23T15:07:56.255Z,22.44
2022-08-23T15:13:22.123Z,22.50
2022-08-23T15:15:55.519Z,22.33
2022-08-23T15:18:24.250Z,22.16
2022-08-23T15:20:52.666Z,22.09
2022-08-23T15:23:21.133Z,22.08
2022-08-23T15:25:51.472Z,21.95
2022-08-23T15:28:22.473Z,21.73
2022-08-23T15:30:51.677Z,22.09
2022-08-23T15:33:24.683Z,21.93
2022-08-23T15:35:55.995Z,22.43
2022-08-23T15:38:25.878Z,22.51
2022-08-23T15:40:55.898Z,22.23
2022-08-23T15:43:25.875Z,22.58
2022-08-23T15:46:07.283Z,22.25
2022-08-23T15:48:38.022Z,22.43
2022-08-23T15:51:07.028Z,22.64
2022-08-23T15:53:35.400Z,22.78
2022-08-23T15:56:08.672Z,21.38
2022-08-23T15:58:38.497Z,22.54
2022-08-23T16:01:08.093Z,22.98
2022-08-23T16:03:36.995Z,22.92
2022-08-23T16:06:05.630Z,22.92
2022-08-23T16:08:38.439Z,22.35
2022-08-23T16:11:12.376Z,22.50
2022-08-23T16:13:42.748Z,22.81
2022-08-23T16:16:17.855Z,22.41
2022-08-23T16:18:46.442Z,23.49
2022-08-23T16:21:15.600Z,23.70
2022-08-23T16:23:44.562Z,23.84
2022-08-23T16:26:16.666Z,23.49
2022-08-23T16:28:51.622Z,23.57
2022-08-23T16:31:20.401Z,24.20
2022-08-23T16:33:48.919Z,24.24
2022-08-23T16:36:19.519Z,23.96
2022-08-23T16:38:49.508Z,24.31
2022-08-23T16:41:19.241Z,24.26
2022-08-23T16:43:47.374Z,24.55
2022-08-23T16:46:17.010Z,24.40
2022-08-23T16:48:45.924Z,24.69
2022-08-23T16:51:14.442Z,24.91
2022-08-23T16:53:43.486Z,24.90
2022-08-23T16:56:15.281Z,23.87
2022-08-23T16:58:45.766Z,24.88
2022-08-23T17:01:14.926Z,25.58
2022-08-23T17:03:44.105Z,25.73
2022-08-23T17:06:13.096Z,25.80
2022-08-23T17:08:41.353Z,26.11
2022-08-23T17:11:12.243Z,25.85
2022-08-23T17:13:42.544Z,25.76
2022-08-23T17:16:12.956Z,25.88
2022-08-23T17:18:41.606Z,26.45
2022-08-23T17:21:10.242Z,26.64
2022-08-23T17:23:40.611Z,26.58
2022-08-23T17:26:09.593Z,26.10
2022-08-23T17:28:38.008Z,26.31
2022-08-23T17:31:06.715Z,26.62
2022-08-23T17:33:36.737Z,26.32
2022-08-23T17:36:07.151Z,26.47
2022-08-23T17:38:36.469Z,26.77
2022-08-23T17:41:04.650Z,26.86
2022-08-23T17:43:33.013Z,26.92
2022-08-23T17:46:01.714Z,27.14
2022-08-23T17:48:30.106Z,27.09
2022-08-23T17:51:00.099Z,27.35
2022-08-23T17:53:28.888Z,27.63
2022-08-23T17:55:57.479Z,27.95
2022-08-23T17:58:26.055Z,28.20
2022-08-23T18:00:56.094Z,28.05
2022-08-23T18:03:24.592Z,28.12
2022-08-23T18:05:53.263Z,28.61
2022-08-23T18:08:23.274Z,28.19
2022-08-23T18:10:51.849Z,28.64
2022-08-23T18:13:20.786Z,28.61
2022-08-23T18:15:49.186Z,29.01
2022-08-23T18:18:17.726Z,28.72
2022-08-23T18:20:45.938Z,28.97
2022-08-23T18:23:15.716Z,29.21
2022-08-23T18:25:45.940Z,28.35
2022-08-23T18:28:14.326Z,28.60
2022-08-23T18:30:48.291Z,28.57
2022-08-23T18:33:17.790Z,28.60
2022-08-23T18:35:47.730Z,28.75
2022-08-23T18:38:16.394Z,28.96
2022-08-23T18:40:47.982Z,28.70
2022-08-23T18:43:19.391Z,29.45
2022-08-23T18:45:49.410Z,29.38
2022-08-23T18:48:18.220Z,29.34
2022-08-23T18:50:46.569Z,29.50
2022-08-23T18:53:14.818Z,29.46
2022-08-23T18:55:43.470Z,29.88
2022-08-23T18:58:13.606Z,29.41
2022-08-23T19:00:45.072Z,29.47
2022-08-23T19:03:16.632Z,29.63
2022-08-23T19:05:44.779Z,29.65
2022-08-23T19:08:14.047Z,29.56
2022-08-23T19:10:43.151Z,29.44
2022-08-23T19:13:13.331Z,29.58
2022-08-23T19:15:42.151Z,29.91
2022-08-23T19:18:11.211Z,29.91
2022-08-23T19:20:39.837Z,29.38
2022-08-23T19:23:08.493Z,29.69
2022-08-23T19:25:38.679Z,29.61
2022-08-23T19:28:07.159Z,29.87
2022-08-23T19:30:37.051Z,29.59
2022-08-23T19:33:08.709Z,29.95
2022-08-23T19:35:37.321Z,30.14
2022-08-23T19:38:05.695Z,29.94
2022-08-23T19:40:34.377Z,29.55
2022-08-23T19:43:02.971Z,29.96
2022-08-23T19:45:32.404Z,30.02
2022-08-23T19:48:02.932Z,29.42
2022-08-23T19:50:31.381Z,29.92
2022-08-23T19:53:00.133Z,30.02
2022-08-23T19:55:29.330Z,30.12
2022-08-23T19:57:58.115Z,30.01
2022-08-23T20:00:27.653Z,29.91
2022-08-23T20:02:55.734Z,30.24
2022-08-23T20:05:25.619Z,30.23
2022-08-23T20:07:53.831Z,30.54
2022-08-23T20:10:22.412Z,30.80
2022-08-23T20:12:50.874Z,30.55
2022-08-23T20:15:19.130Z,30.53
2022-08-23T20:17:47.302Z,30.41
2022-08-23T20:20:15.693Z,30.37
2022-08-23T20:23:03.034Z,29.81
2022-08-23T20:25:31.629Z,30.29
2022-08-23T20:27:59.882Z,30.54
2022-08-23T20:30:28.198Z,30.26
2022-08-23T20:32:56.639Z,30.32
2022-08-23T20:35:25.032Z,30.61
2022-08-23T20:37:54.664Z,29.85
2022-08-23T20:40:26.115Z,30.42
2022-08-23T20:42:54.299Z,30.43
2022-08-23T20:45:22.416Z,30.42
2022-08-23T20:47:50.923Z,30.29
2022-08-23T20:50:19.013Z,30.47
2022-08-23T20:52:47.098Z,30.53
2022-08-23T20:55:16.993Z,30.40
2022-08-23T20:57:45.161Z,30.50
2022-08-23T21:00:14.366Z,30.47
2022-08-23T21:02:42.812Z,30.33
2022-08-23T21:05:11.111Z,30.27
2022-08-23T21:07:40.235Z,30.21
2022-08-23T21:10:10.639Z,30.28
2022-08-23T21:12:40.308Z,29.82
2022-08-23T21:15:11.089Z,30.29
2022-08-23T21:17:39.662Z,30.54
2022-08-23T21:20:08.880Z,30.14
2022-08-23T21:22:37.227Z,30.27
2022-08-23T21:25:06.360Z,29.97
2022-08-23T21:27:35.143Z,30.13
2022-08-23T21:30:06.130Z,29.90
2022-08-23T21:32:34.383Z,30.30
2022-08-23T21:35:03.307Z,30.36
2022-08-23T21:37:31.419Z,30.47
2022-08-23T21:39:59.836Z,30.54
2022-08-23T21:42:28.217Z,30.22
2022-08-23T21:44:56.858Z,30.27
2022-08-23T21:47:26.704Z,29.90
2022-08-23T21:49:54.841Z,30.39
2022-08-23T21:52:23.011Z,30.18
2022-08-23T21:54:51.627Z,30.17
2022-08-23T21:57:19.845Z,30.54
2022-08-23T21:59:51.729Z,30.33
2022-08-23T22:02:20.640Z,30.44
2022-08-23T22:04:50.449Z,30.51
2022-08-23T22:07:18.758Z,30.81
2022-08-23T22:09:47.304Z,30.63
2022-08-23T22:12:15.816Z,30.84
2022-08-23T22:14:47.348Z,30.84
2022-08-23T22:17:17.959Z,30.93
2022-08-23T22:19:46.220Z,30.83
2022-08-23T22:22:15.792Z,30.36
2022-08-23T22:24:44.302Z,30.60
2022-08-23T22:27:13.468Z,30.79
2022-08-23T22:29:41.771Z,30.64
2022-08-23T22:32:13.664Z,30.81
2022-08-23T22:34:41.905Z,30.64
2022-08-23T22:37:09.974Z,30.55
2022-08-23T22:39:39.735Z,30.22
2022-08-23T22:42:09.887Z,30.49
2022-08-23T22:44:38.325Z,30.70
2022-08-23T22:47:07.068Z,30.46
2022-08-23T22:49:35.162Z,30.54
2022-08-23T22:52:03.228Z,30.76
2022-08-23T22:54:31.576Z,30.44
2022-08-23T22:57:00.975Z,30.41
2022-08-23T22:59:32.134Z,30.85
2022-08-23T23:02:02.563Z,30.65
2022-08-23T23:04:32.676Z,30.52
2022-08-23T23:07:00.976Z,30.69
2022-08-23T23:09:29.498Z,30.62
2022-08-23T23:11:57.574Z,30.58
2022-08-23T23:14:26.976Z,30.46
2022-08-23T23:16:55.483Z,30.96
2022-08-23T23:19:41.087Z,30.79
2022-08-23T23:22:11.106Z,30.52
2022-08-23T23:24:40.568Z,30.47
2022-08-23T23:27:09.256Z,30.98
2022-08-23T23:29:38.905Z,30.70
2022-08-23T23:32:07.500Z,31.05
2022-08-23T23:34:38.058Z,31.46
2022-08-23T23:37:06.460Z,31.64
2022-08-23T23:39:34.727Z,32.03
2022-08-23T23:42:02.878Z,31.91
2022-08-23T23:44:32.032Z,31.93
2022-08-23T23:47:02.425Z,31.75
2022-08-23T23:49:32.345Z,32.05
2022-08-23T23:52:03.630Z,31.64
2022-08-23T23:54:32.521Z,31.75
2022-08-23T23:57:00.647Z,31.75
2022-08-23T23:59:29.188Z,31.94
